sensor_id;sensor_type;location;lat;lon;timestamp;P1;durP1;ratioP1;P2;durP2;ratioP2
14738;SDS011;7461;52.440;13.540;2023-02-15T00:01:59;42.10;;;37.92;;
14738;SDS011;7461;52.440;13.540;2023-02-15T00:04:26;38.70;;;34.92;;
14738;SDS011;7461;52.440;13.540;2023-02-15T00:07:13;39.90;;;35.85;;
14738;SDS011;7461;52.440;13.540;2023-02-15T00:09:41;40.53;;;36.85;;
14738;SDS011;7461;52.440;13.540;2023-02-15T00:12:08;39.28;;;35.35;;
14738;SDS011;7461;52.440;13.540;2023-02-15T00:14:36;40.67;;;36.75;;
14738;SDS011;7461;52.440;13.540;2023-02-15T00:17:02;40.85;;;36.75;;
14738;SDS011;7461;52.440;13.540;2023-02-15T00:19:30;37.40;;;34.08;;
14738;SDS011;7461;52.440;13.540;2023-02-15T00:21:57;39.10;;;35.30;;
14738;SDS011;7461;52.440;13.540;2023-02-15T00:24:25;42.28;;;37.83;;
14738;SDS011;7461;52.440;13.540;2023-02-15T00:26:52;42.20;;;38.15;;
14738;SDS011;7461;52.440;13.540;2023-02-15T00:29:20;40.08;;;36.30;;
14738;SDS011;7461;52.440;13.540;2023-02-15T00:31:49;43.10;;;38.65;;
14738;SDS011;7461;52.440;13.540;2023-02-15T00:34:17;38.67;;;35.05;;
14738;SDS011;7461;52.440;13.540;2023-02-15T00:36:45;40.40;;;35.35;;
14738;SDS011;7461;52.440;13.540;2023-02-15T00:39:13;41.50;;;37.47;;
14738;SDS011;7461;52.440;13.540;2023-02-15T00:41:42;38.90;;;35.25;;
14738;SDS011;7461;52.440;13.540;2023-02-15T00:44:09;38.95;;;35.33;;
14738;SDS011;7461;52.440;13.540;2023-02-15T00:46:37;42.00;;;37.70;;
14738;SDS011;7461;52.440;13.540;2023-02-15T00:49:04;42.85;;;38.47;;
14738;SDS011;7461;52.440;13.540;2023-02-15T00:51:31;42.08;;;37.97;;
14738;SDS011;7461;52.440;13.540;2023-02-15T00:53:59;40.22;;;36.40;;
14738;SDS011;7461;52.440;13.540;2023-02-15T00:56:26;44.08;;;39.38;;
14738;SDS011;7461;52.440;13.540;2023-02-15T00:58:55;42.95;;;38.83;;
14738;SDS011;7461;52.440;13.540;2023-02-15T01:01:22;41.38;;;37.50;;
14738;SDS011;7461;52.440;13.540;2023-02-15T01:03:50;38.97;;;35.30;;
14738;SDS011;7461;52.440;13.540;2023-02-15T01:06:17;40.67;;;36.60;;
14738;SDS011;7461;52.440;13.540;2023-02-15T01:08:45;42.92;;;38.63;;
14738;SDS011;7461;52.440;13.540;2023-02-15T01:11:13;42.83;;;38.65;;
14738;SDS011;7461;52.440;13.540;2023-02-15T01:13:47;44.28;;;39.58;;
14738;SDS011;7461;52.440;13.540;2023-02-15T01:16:16;41.80;;;37.58;;
14738;SDS011;7461;52.440;13.540;2023-02-15T01:18:44;45.28;;;39.85;;
14738;SDS011;7461;52.440;13.540;2023-02-15T01:21:11;43.55;;;39.13;;
14738;SDS011;7461;52.440;13.540;2023-02-15T01:23:40;44.20;;;39.97;;
14738;SDS011;7461;52.440;13.540;2023-02-15T01:26:07;40.63;;;36.53;;
14738;SDS011;7461;52.440;13.540;2023-02-15T01:28:34;44.60;;;40.03;;
14738;SDS011;7461;52.440;13.540;2023-02-15T01:31:04;43.10;;;38.83;;
14738;SDS011;7461;52.440;13.540;2023-02-15T01:33:33;41.03;;;36.97;;
14738;SDS011;7461;52.440;13.540;2023-02-15T01:36:01;42.20;;;37.95;;
14738;SDS011;7461;52.440;13.540;2023-02-15T01:38:29;39.60;;;35.75;;
14738;SDS011;7461;52.440;13.540;2023-02-15T01:40:56;42.85;;;38.67;;
14738;SDS011;7461;52.440;13.540;2023-02-15T01:43:44;42.83;;;38.75;;
14738;SDS011;7461;52.440;13.540;2023-02-15T01:46:13;40.85;;;36.83;;
14738;SDS011;7461;52.440;13.540;2023-02-15T01:48:44;45.17;;;40.45;;
14738;SDS011;7461;52.440;13.540;2023-02-15T01:51:13;45.10;;;40.25;;
14738;SDS011;7461;52.440;13.540;2023-02-15T01:53:45;45.38;;;40.83;;
14738;SDS011;7461;52.440;13.540;2023-02-15T01:56:18;42.65;;;38.38;;
14738;SDS011;7461;52.440;13.540;2023-02-15T01:58:47;44.25;;;39.85;;
14738;SDS011;7461;52.440;13.540;2023-02-15T02:01:15;42.13;;;37.97;;
14738;SDS011;7461;52.440;13.540;2023-02-15T02:03:45;45.67;;;40.95;;
14738;SDS011;7461;52.440;13.540;2023-02-15T02:06:16;41.55;;;37.10;;
14738;SDS011;7461;52.440;13.540;2023-02-15T02:08:43;48.10;;;43.05;;
14738;SDS011;7461;52.440;13.540;2023-02-15T02:11:12;45.58;;;40.70;;
14738;SDS011;7461;52.440;13.540;2023-02-15T02:13:39;48.15;;;43.40;;
14738;SDS011;7461;52.440;13.540;2023-02-15T02:16:08;46.10;;;40.90;;
14738;SDS011;7461;52.440;13.540;2023-02-15T02:18:41;46.58;;;41.42;;
14738;SDS011;7461;52.440;13.540;2023-02-15T02:21:39;45.45;;;40.67;;
14738;SDS011;7461;52.440;13.540;2023-02-15T02:27:32;41.58;;;37.38;;
14738;SDS011;7461;52.440;13.540;2023-02-15T02:30:26;45.38;;;41.05;;
14738;SDS011;7461;52.440;13.540;2023-02-15T02:33:19;49.08;;;41.00;;
14738;SDS011;7461;52.440;13.540;2023-02-15T02:36:00;45.38;;;40.75;;
14738;SDS011;7461;52.440;13.540;2023-02-15T02:38:38;47.13;;;42.22;;
14738;SDS011;7461;52.440;13.540;2023-02-15T02:41:17;48.80;;;43.63;;
14738;SDS011;7461;52.440;13.540;2023-02-15T02:43:50;45.67;;;41.28;;
14738;SDS011;7461;52.440;13.540;2023-02-15T02:46:22;46.63;;;41.85;;
14738;SDS011;7461;52.440;13.540;2023-02-15T02:48:55;51.00;;;45.70;;
14738;SDS011;7461;52.440;13.540;2023-02-15T02:51:22;48.50;;;43.58;;
14738;SDS011;7461;52.440;13.540;2023-02-15T02:53:50;51.75;;;42.67;;
14738;SDS011;7461;52.440;13.540;2023-02-15T02:56:22;45.45;;;40.80;;
14738;SDS011;7461;52.440;13.540;2023-02-15T02:58:55;50.33;;;44.83;;
14738;SDS011;7461;52.440;13.540;2023-02-15T03:01:27;50.85;;;45.65;;
14738;SDS011;7461;52.440;13.540;2023-02-15T03:04:00;51.65;;;45.95;;
14738;SDS011;7461;52.440;13.540;2023-02-15T03:06:35;51.85;;;44.97;;
14738;SDS011;7461;52.440;13.540;2023-02-15T03:09:07;55.28;;;48.35;;
14738;SDS011;7461;52.440;13.540;2023-02-15T03:11:40;49.92;;;44.53;;
14738;SDS011;7461;52.440;13.540;2023-02-15T03:14:09;55.38;;;49.08;;
14738;SDS011;7461;52.440;13.540;2023-02-15T03:16:37;52.38;;;46.63;;
14738;SDS011;7461;52.440;13.540;2023-02-15T03:19:13;52.03;;;44.72;;
14738;SDS011;7461;52.440;13.540;2023-02-15T03:21:44;52.67;;;46.90;;
14738;SDS011;7461;52.440;13.540;2023-02-15T03:24:23;56.42;;;50.30;;
14738;SDS011;7461;52.440;13.540;2023-02-15T03:26:54;54.47;;;46.10;;
14738;SDS011;7461;52.440;13.540;2023-02-15T03:29:24;58.58;;;48.58;;
14738;SDS011;7461;52.440;13.540;2023-02-15T03:31:53;53.13;;;47.40;;
14738;SDS011;7461;52.440;13.540;2023-02-15T03:34:26;55.10;;;45.90;;
14738;SDS011;7461;52.440;13.540;2023-02-15T03:36:55;55.30;;;49.13;;
14738;SDS011;7461;52.440;13.540;2023-02-15T03:39:29;57.28;;;45.03;;
14738;SDS011;7461;52.440;13.540;2023-02-15T03:42:00;59.63;;;47.05;;
14738;SDS011;7461;52.440;13.540;2023-02-15T03:44:37;54.50;;;47.85;;
14738;SDS011;7461;52.440;13.540;2023-02-15T03:47:11;54.95;;;49.00;;
14738;SDS011;7461;52.440;13.540;2023-02-15T03:49:44;52.95;;;46.92;;
14738;SDS011;7461;52.440;13.540;2023-02-15T03:52:16;52.15;;;46.42;;
14738;SDS011;7461;52.440;13.540;2023-02-15T03:54:45;59.78;;;48.60;;
14738;SDS011;7461;52.440;13.540;2023-02-15T03:57:17;50.28;;;44.40;;
14738;SDS011;7461;52.440;13.540;2023-02-15T04:00:04;57.08;;;47.42;;
14738;SDS011;7461;52.440;13.540;2023-02-15T04:03:07;58.13;;;50.05;;
14738;SDS011;7461;52.440;13.540;2023-02-15T04:05:39;53.50;;;47.63;;
14738;SDS011;7461;52.440;13.540;2023-02-15T04:08:07;61.13;;;48.60;;
14738;SDS011;7461;52.440;13.540;2023-02-15T04:10:34;57.33;;;46.00;;
14738;SDS011;7461;52.440;13.540;2023-02-15T04:13:20;56.92;;;49.03;;
14738;SDS011;7461;52.440;13.540;2023-02-15T04:15:48;57.05;;;47.58;;
14738;SDS011;7461;52.440;13.540;2023-02-15T04:18:30;66.13;;;51.00;;
14738;SDS011;7461;52.440;13.540;2023-02-15T04:21:16;51.05;;;45.80;;
14738;SDS011;7461;52.440;13.540;2023-02-15T04:24:01;53.22;;;43.63;;
14738;SDS011;7461;52.440;13.540;2023-02-15T04:26:46;51.95;;;44.90;;
14738;SDS011;7461;52.440;13.540;2023-02-15T04:29:14;54.30;;;46.35;;
14738;SDS011;7461;52.440;13.540;2023-02-15T04:31:41;54.35;;;47.88;;
14738;SDS011;7461;52.440;13.540;2023-02-15T04:34:08;51.10;;;44.90;;
14738;SDS011;7461;52.440;13.540;2023-02-15T04:36:37;55.20;;;46.47;;
14738;SDS011;7461;52.440;13.540;2023-02-15T04:39:04;55.00;;;46.63;;
14738;SDS011;7461;52.440;13.540;2023-02-15T04:41:31;55.33;;;47.15;;
14738;SDS011;7461;52.440;13.540;2023-02-15T04:43:59;50.88;;;45.35;;
14738;SDS011;7461;52.440;13.540;2023-02-15T04:46:26;53.05;;;45.05;;
14738;SDS011;7461;52.440;13.540;2023-02-15T04:48:54;55.13;;;46.70;;
14738;SDS011;7461;52.440;13.540;2023-02-15T04:51:21;56.47;;;49.10;;
14738;SDS011;7461;52.440;13.540;2023-02-15T04:53:49;58.90;;;47.88;;
14738;SDS011;7461;52.440;13.540;2023-02-15T04:56:17;58.45;;;45.75;;
14738;SDS011;7461;52.440;13.540;2023-02-15T04:58:44;49.60;;;43.72;;
14738;SDS011;7461;52.440;13.540;2023-02-15T05:01:11;51.65;;;46.38;;
14738;SDS011;7461;52.440;13.540;2023-02-15T05:03:39;54.03;;;45.85;;
14738;SDS011;7461;52.440;13.540;2023-02-15T05:06:05;56.05;;;44.58;;
14738;SDS011;7461;52.440;13.540;2023-02-15T05:08:32;54.35;;;48.00;;
14738;SDS011;7461;52.440;13.540;2023-02-15T05:11:01;51.78;;;45.10;;
14738;SDS011;7461;52.440;13.540;2023-02-15T05:13:28;54.35;;;45.40;;
14738;SDS011;7461;52.440;13.540;2023-02-15T05:15:55;55.40;;;46.13;;
14738;SDS011;7461;52.440;13.540;2023-02-15T05:18:22;55.78;;;45.33;;
14738;SDS011;7461;52.440;13.540;2023-02-15T05:20:49;50.80;;;42.75;;
14738;SDS011;7461;52.440;13.540;2023-02-15T05:23:16;56.30;;;48.22;;
14738;SDS011;7461;52.440;13.540;2023-02-15T05:25:46;59.78;;;47.45;;
14738;SDS011;7461;52.440;13.540;2023-02-15T05:28:32;54.35;;;45.20;;
14738;SDS011;7461;52.440;13.540;2023-02-15T05:31:02;57.63;;;46.58;;
14738;SDS011;7461;52.440;13.540;2023-02-15T05:33:30;57.28;;;47.47;;
14738;SDS011;7461;52.440;13.540;2023-02-15T05:35:57;66.20;;;47.45;;
14738;SDS011;7461;52.440;13.540;2023-02-15T05:38:24;59.22;;;47.45;;
14738;SDS011;7461;52.440;13.540;2023-02-15T05:40:51;58.55;;;49.30;;
14738;SDS011;7461;52.440;13.540;2023-02-15T05:43:18;61.25;;;46.53;;
14738;SDS011;7461;52.440;13.540;2023-02-15T05:45:47;61.45;;;49.58;;
14738;SDS011;7461;52.440;13.540;2023-02-15T05:48:15;61.63;;;49.10;;
14738;SDS011;7461;52.440;13.540;2023-02-15T05:50:42;61.42;;;49.13;;
14738;SDS011;7461;52.440;13.540;2023-02-15T05:53:10;59.40;;;45.95;;
14738;SDS011;7461;52.440;13.540;2023-02-15T05:55:37;54.67;;;46.35;;
14738;SDS011;7461;52.440;13.540;2023-02-15T05:58:04;53.33;;;44.95;;
14738;SDS011;7461;52.440;13.540;2023-02-15T06:00:31;52.90;;;43.70;;
14738;SDS011;7461;52.440;13.540;2023-02-15T06:03:00;63.28;;;49.40;;
14738;SDS011;7461;52.440;13.540;2023-02-15T06:05:27;57.67;;;47.92;;
14738;SDS011;7461;52.440;13.540;2023-02-15T06:07:54;55.45;;;49.00;;
14738;SDS011;7461;52.440;13.540;2023-02-15T06:10:21;63.90;;;48.83;;
14738;SDS011;7461;52.440;13.540;2023-02-15T06:12:48;64.15;;;50.00;;
14738;SDS011;7461;52.440;13.540;2023-02-15T06:15:15;58.65;;;45.97;;
14738;SDS011;7461;52.440;13.540;2023-02-15T06:17:42;54.30;;;44.35;;
14738;SDS011;7461;52.440;13.540;2023-02-15T06:20:11;57.88;;;44.72;;
14738;SDS011;7461;52.440;13.540;2023-02-15T06:22:38;62.38;;;46.33;;
14738;SDS011;7461;52.440;13.540;2023-02-15T06:25:05;50.70;;;40.72;;
14738;SDS011;7461;52.440;13.540;2023-02-15T06:27:35;52.47;;;43.67;;
14738;SDS011;7461;52.440;13.540;2023-02-15T06:30:02;55.85;;;45.88;;
14738;SDS011;7461;52.440;13.540;2023-02-15T06:32:30;62.15;;;44.72;;
14738;SDS011;7461;52.440;13.540;2023-02-15T06:34:57;55.08;;;45.05;;
14738;SDS011;7461;52.440;13.540;2023-02-15T06:37:26;52.97;;;40.20;;
14738;SDS011;7461;52.440;13.540;2023-02-15T06:39:52;53.58;;;47.45;;
14738;SDS011;7461;52.440;13.540;2023-02-15T06:42:20;55.17;;;45.28;;
14738;SDS011;7461;52.440;13.540;2023-02-15T06:44:47;54.42;;;42.67;;
14738;SDS011;7461;52.440;13.540;2023-02-15T06:47:14;54.78;;;45.05;;
14738;SDS011;7461;52.440;13.540;2023-02-15T06:49:41;57.22;;;44.60;;
14738;SDS011;7461;52.440;13.540;2023-02-15T06:52:08;56.75;;;43.72;;
14738;SDS011;7461;52.440;13.540;2023-02-15T06:54:36;51.30;;;41.47;;
14738;SDS011;7461;52.440;13.540;2023-02-15T06:57:03;52.45;;;44.80;;
14738;SDS011;7461;52.440;13.540;2023-02-15T06:59:30;51.50;;;39.70;;
14738;SDS011;7461;52.440;13.540;2023-02-15T07:01:57;51.35;;;43.60;;
14738;SDS011;7461;52.440;13.540;2023-02-15T07:04:24;53.72;;;42.58;;
14738;SDS011;7461;52.440;13.540;2023-02-15T07:06:51;61.03;;;45.85;;
14738;SDS011;7461;52.440;13.540;2023-02-15T07:09:18;51.63;;;44.35;;
14738;SDS011;7461;52.440;13.540;2023-02-15T07:11:46;55.65;;;46.22;;
14738;SDS011;7461;52.440;13.540;2023-02-15T07:14:30;51.80;;;43.78;;
14738;SDS011;7461;52.440;13.540;2023-02-15T07:16:57;64.00;;;45.38;;
14738;SDS011;7461;52.440;13.540;2023-02-15T07:19:24;54.35;;;44.50;;
14738;SDS011;7461;52.440;13.540;2023-02-15T07:21:51;60.30;;;47.00;;
14738;SDS011;7461;52.440;13.540;2023-02-15T07:24:18;57.13;;;44.25;;
14738;SDS011;7461;52.440;13.540;2023-02-15T07:26:46;56.28;;;46.50;;
14738;SDS011;7461;52.440;13.540;2023-02-15T07:29:13;49.67;;;43.83;;
14738;SDS011;7461;52.440;13.540;2023-02-15T07:31:41;65.72;;;47.95;;
14738;SDS011;7461;52.440;13.540;2023-02-15T07:34:10;55.05;;;44.78;;
14738;SDS011;7461;52.440;13.540;2023-02-15T07:36:37;61.28;;;46.58;;
14738;SDS011;7461;52.440;13.540;2023-02-15T07:39:04;58.08;;;48.95;;
14738;SDS011;7461;52.440;13.540;2023-02-15T07:41:31;61.60;;;46.90;;
14738;SDS011;7461;52.440;13.540;2023-02-15T07:43:59;55.53;;;46.20;;
14738;SDS011;7461;52.440;13.540;2023-02-15T07:46:26;53.28;;;45.35;;
14738;SDS011;7461;52.440;13.540;2023-02-15T07:48:53;58.58;;;44.30;;
14738;SDS011;7461;52.440;13.540;2023-02-15T07:51:20;58.55;;;43.88;;
14738;SDS011;7461;52.440;13.540;2023-02-15T07:53:47;59.45;;;47.35;;
14738;SDS011;7461;52.440;13.540;2023-02-15T07:56:14;57.22;;;43.67;;
14738;SDS011;7461;52.440;13.540;2023-02-15T07:58:41;61.65;;;47.10;;
14738;SDS011;7461;52.440;13.540;2023-02-15T08:01:19;54.20;;;44.83;;
14738;SDS011;7461;52.440;13.540;2023-02-15T08:03:47;54.38;;;42.08;;
14738;SDS011;7461;52.440;13.540;2023-02-15T08:06:15;61.42;;;46.10;;
14738;SDS011;7461;52.440;13.540;2023-02-15T08:08:42;52.15;;;43.10;;
14738;SDS011;7461;52.440;13.540;2023-02-15T08:11:14;61.08;;;46.17;;
14738;SDS011;7461;52.440;13.540;2023-02-15T08:13:54;49.33;;;43.80;;
14738;SDS011;7461;52.440;13.540;2023-02-15T08:16:26;59.33;;;42.35;;
14738;SDS011;7461;52.440;13.540;2023-02-15T08:18:55;58.38;;;46.72;;
14738;SDS011;7461;52.440;13.540;2023-02-15T08:21:25;53.17;;;43.13;;
14738;SDS011;7461;52.440;13.540;2023-02-15T08:23:53;51.22;;;41.70;;
14738;SDS011;7461;52.440;13.540;2023-02-15T08:26:20;59.85;;;44.10;;
14738;SDS011;7461;52.440;13.540;2023-02-15T08:28:48;63.63;;;45.63;;
14738;SDS011;7461;52.440;13.540;2023-02-15T08:31:16;58.45;;;43.42;;
14738;SDS011;7461;52.440;13.540;2023-02-15T08:33:45;55.67;;;45.67;;
14738;SDS011;7461;52.440;13.540;2023-02-15T08:36:14;54.83;;;44.97;;
14738;SDS011;7461;52.440;13.540;2023-02-15T08:38:42;52.75;;;40.85;;
14738;SDS011;7461;52.440;13.540;2023-02-15T08:41:10;51.03;;;42.92;;
14738;SDS011;7461;52.440;13.540;2023-02-15T08:43:39;56.95;;;45.55;;
14738;SDS011;7461;52.440;13.540;2023-02-15T08:46:07;57.30;;;42.53;;
14738;SDS011;7461;52.440;13.540;2023-02-15T08:48:36;65.45;;;44.10;;
14738;SDS011;7461;52.440;13.540;2023-02-15T08:51:06;64.13;;;45.55;;
14738;SDS011;7461;52.440;13.540;2023-02-15T08:53:35;53.33;;;41.60;;
14738;SDS011;7461;52.440;13.540;2023-02-15T08:56:02;56.67;;;45.22;;
14738;SDS011;7461;52.440;13.540;2023-02-15T08:58:33;54.78;;;41.92;;
14738;SDS011;7461;52.440;13.540;2023-02-15T09:01:01;58.28;;;42.65;;
14738;SDS011;7461;52.440;13.540;2023-02-15T09:03:34;57.90;;;45.72;;
14738;SDS011;7461;52.440;13.540;2023-02-15T09:06:01;54.35;;;45.75;;
14738;SDS011;7461;52.440;13.540;2023-02-15T09:08:30;62.13;;;42.95;;
14738;SDS011;7461;52.440;13.540;2023-02-15T09:11:04;58.05;;;44.28;;
14738;SDS011;7461;52.440;13.540;2023-02-15T09:13:31;53.75;;;41.85;;
14738;SDS011;7461;52.440;13.540;2023-02-15T09:15:59;51.00;;;44.40;;
14738;SDS011;7461;52.440;13.540;2023-02-15T09:18:27;60.20;;;45.60;;
14738;SDS011;7461;52.440;13.540;2023-02-15T09:20:56;58.50;;;46.92;;
14738;SDS011;7461;52.440;13.540;2023-02-15T09:23:30;60.15;;;45.30;;
14738;SDS011;7461;52.440;13.540;2023-02-15T09:26:01;54.75;;;44.83;;
14738;SDS011;7461;52.440;13.540;2023-02-15T09:28:29;58.40;;;47.67;;
14738;SDS011;7461;52.440;13.540;2023-02-15T09:31:03;56.22;;;44.38;;
14738;SDS011;7461;52.440;13.540;2023-02-15T09:33:32;56.88;;;44.13;;
14738;SDS011;7461;52.440;13.540;2023-02-15T09:35:59;66.45;;;48.08;;
14738;SDS011;7461;52.440;13.540;2023-02-15T09:38:27;61.67;;;46.97;;
14738;SDS011;7461;52.440;13.540;2023-02-15T09:40:56;54.38;;;46.53;;
14738;SDS011;7461;52.440;13.540;2023-02-15T09:43:42;59.30;;;47.75;;
14738;SDS011;7461;52.440;13.540;2023-02-15T09:46:20;63.90;;;49.05;;
14738;SDS011;7461;52.440;13.540;2023-02-15T09:48:58;59.45;;;47.92;;
14738;SDS011;7461;52.440;13.540;2023-02-15T09:51:43;54.60;;;44.20;;
14738;SDS011;7461;52.440;13.540;2023-02-15T09:54:29;56.72;;;46.72;;
14738;SDS011;7461;52.440;13.540;2023-02-15T09:57:05;62.05;;;47.33;;
14738;SDS011;7461;52.440;13.540;2023-02-15T09:59:43;58.95;;;43.65;;
14738;SDS011;7461;52.440;13.540;2023-02-15T10:02:24;64.10;;;48.08;;
14738;SDS011;7461;52.440;13.540;2023-02-15T10:05:07;59.85;;;49.20;;
14738;SDS011;7461;52.440;13.540;2023-02-15T10:07:58;64.18;;;46.70;;
14738;SDS011;7461;52.440;13.540;2023-02-15T10:10:41;52.75;;;43.63;;
14738;SDS011;7461;52.440;13.540;2023-02-15T10:13:21;62.55;;;48.67;;
14738;SDS011;7461;52.440;13.540;2023-02-15T10:16:00;53.53;;;43.95;;
14738;SDS011;7461;52.440;13.540;2023-02-15T10:18:53;62.45;;;49.45;;
14738;SDS011;7461;52.440;13.540;2023-02-15T10:21:39;64.18;;;49.40;;
14738;SDS011;7461;52.440;13.540;2023-02-15T10:27:08;63.78;;;47.55;;
14738;SDS011;7461;52.440;13.540;2023-02-15T10:29:41;51.63;;;44.72;;
14738;SDS011;7461;52.440;13.540;2023-02-15T10:32:20;59.08;;;46.20;;
14738;SDS011;7461;52.440;13.540;2023-02-15T10:34:51;60.97;;;49.55;;
14738;SDS011;7461;52.440;13.540;2023-02-15T10:37:26;62.67;;;50.63;;
14738;SDS011;7461;52.440;13.540;2023-02-15T10:40:13;57.13;;;50.70;;
14738;SDS011;7461;52.440;13.540;2023-02-15T10:42:51;65.78;;;50.65;;
14738;SDS011;7461;52.440;13.540;2023-02-15T10:45:34;58.65;;;49.42;;
14738;SDS011;7461;52.440;13.540;2023-02-15T10:48:16;61.30;;;51.03;;
14738;SDS011;7461;52.440;13.540;2023-02-15T10:51:01;57.50;;;48.47;;
14738;SDS011;7461;52.440;13.540;2023-02-15T10:53:42;50.53;;;45.55;;
14738;SDS011;7461;52.440;13.540;2023-02-15T10:56:19;54.92;;;47.45;;
14738;SDS011;7461;52.440;13.540;2023-02-15T10:58:59;54.30;;;48.65;;
14738;SDS011;7461;52.440;13.540;2023-02-15T11:01:40;51.08;;;45.85;;
14738;SDS011;7461;52.440;13.540;2023-02-15T11:04:15;52.53;;;45.05;;
14738;SDS011;7461;52.440;13.540;2023-02-15T11:07:14;50.80;;;45.55;;
14738;SDS011;7461;52.440;13.540;2023-02-15T11:09:46;46.47;;;42.00;;
14738;SDS011;7461;52.440;13.540;2023-02-15T11:12:16;47.05;;;42.25;;
14738;SDS011;7461;52.440;13.540;2023-02-15T11:14:49;45.80;;;41.13;;
14738;SDS011;7461;52.440;13.540;2023-02-15T11:17:23;47.13;;;42.03;;
14738;SDS011;7461;52.440;13.540;2023-02-15T11:19:56;44.88;;;40.35;;
14738;SDS011;7461;52.440;13.540;2023-02-15T11:22:30;45.10;;;40.58;;
14738;SDS011;7461;52.440;13.540;2023-02-15T11:24:59;44.05;;;39.63;;
14738;SDS011;7461;52.440;13.540;2023-02-15T11:27:29;41.92;;;37.55;;
14738;SDS011;7461;52.440;13.540;2023-02-15T11:29:59;43.65;;;39.25;;
14738;SDS011;7461;52.440;13.540;2023-02-15T11:32:30;40.30;;;36.70;;
14738;SDS011;7461;52.440;13.540;2023-02-15T11:35:02;39.80;;;35.88;;
14738;SDS011;7461;52.440;13.540;2023-02-15T11:37:38;39.55;;;36.00;;
14738;SDS011;7461;52.440;13.540;2023-02-15T11:40:15;41.72;;;37.25;;
14738;SDS011;7461;52.440;13.540;2023-02-15T11:42:47;35.35;;;32.00;;
14738;SDS011;7461;52.440;13.540;2023-02-15T11:45:19;37.45;;;33.63;;
14738;SDS011;7461;52.440;13.540;2023-02-15T11:47:53;35.47;;;32.17;;
14738;SDS011;7461;52.440;13.540;2023-02-15T11:50:22;38.60;;;34.95;;
14738;SDS011;7461;52.440;13.540;2023-02-15T11:52:50;38.70;;;34.97;;
14738;SDS011;7461;52.440;13.540;2023-02-15T11:55:20;39.42;;;35.53;;
14738;SDS011;7461;52.440;13.540;2023-02-15T11:57:50;41.17;;;37.13;;
14738;SDS011;7461;52.440;13.540;2023-02-15T12:00:24;41.85;;;37.40;;
14738;SDS011;7461;52.440;13.540;2023-02-15T12:03:02;43.20;;;39.28;;
14738;SDS011;7461;52.440;13.540;2023-02-15T12:05:35;40.25;;;36.17;;
14738;SDS011;7461;52.440;13.540;2023-02-15T12:08:09;42.65;;;38.47;;
14738;SDS011;7461;52.440;13.540;2023-02-15T12:10:41;40.08;;;36.03;;
14738;SDS011;7461;52.440;13.540;2023-02-15T12:13:18;39.83;;;36.03;;
14738;SDS011;7461;52.440;13.540;2023-02-15T12:15:46;38.03;;;34.63;;
14738;SDS011;7461;52.440;13.540;2023-02-15T12:18:18;38.17;;;34.40;;
14738;SDS011;7461;52.440;13.540;2023-02-15T12:21:02;39.67;;;35.47;;
14738;SDS011;7461;52.440;13.540;2023-02-15T12:23:32;35.72;;;32.28;;
14738;SDS011;7461;52.440;13.540;2023-02-15T12:25:59;37.05;;;33.55;;
14738;SDS011;7461;52.440;13.540;2023-02-15T12:28:31;37.05;;;33.38;;
14738;SDS011;7461;52.440;13.540;2023-02-15T12:31:00;32.72;;;29.92;;
14738;SDS011;7461;52.440;13.540;2023-02-15T12:33:31;33.22;;;30.27;;
14738;SDS011;7461;52.440;13.540;2023-02-15T12:36:02;30.60;;;27.90;;
14738;SDS011;7461;52.440;13.540;2023-02-15T12:38:35;29.70;;;26.70;;
14738;SDS011;7461;52.440;13.540;2023-02-15T12:41:03;31.85;;;28.98;;
14738;SDS011;7461;52.440;13.540;2023-02-15T12:43:37;31.27;;;28.40;;
14738;SDS011;7461;52.440;13.540;2023-02-15T12:48:50;31.73;;;28.77;;
14738;SDS011;7461;52.440;13.540;2023-02-15T12:51:37;31.35;;;28.35;;
14738;SDS011;7461;52.440;13.540;2023-02-15T12:54:15;26.52;;;24.05;;
14738;SDS011;7461;52.440;13.540;2023-02-15T12:57:14;31.48;;;28.52;;
14738;SDS011;7461;52.440;13.540;2023-02-15T12:59:51;29.98;;;27.23;;
14738;SDS011;7461;52.440;13.540;2023-02-15T13:02:27;26.73;;;24.42;;
14738;SDS011;7461;52.440;13.540;2023-02-15T13:05:05;30.83;;;28.08;;
14738;SDS011;7461;52.440;13.540;2023-02-15T13:07:44;29.35;;;26.42;;
14738;SDS011;7461;52.440;13.540;2023-02-15T13:10:18;29.65;;;26.92;;
14738;SDS011;7461;52.440;13.540;2023-02-15T13:12:51;27.48;;;25.10;;
14738;SDS011;7461;52.440;13.540;2023-02-15T13:15:23;30.45;;;27.33;;
14738;SDS011;7461;52.440;13.540;2023-02-15T13:17:55;26.77;;;24.42;;
14738;SDS011;7461;52.440;13.540;2023-02-15T13:20:23;24.27;;;22.35;;
14738;SDS011;7461;52.440;13.540;2023-02-15T13:22:53;27.88;;;25.25;;
14738;SDS011;7461;52.440;13.540;2023-02-15T13:25:24;25.38;;;23.20;;
14738;SDS011;7461;52.440;13.540;2023-02-15T13:27:54;24.40;;;22.17;;
14738;SDS011;7461;52.440;13.540;2023-02-15T13:30:24;26.95;;;24.55;;
14738;SDS011;7461;52.440;13.540;2023-02-15T13:32:54;26.45;;;24.13;;
14738;SDS011;7461;52.440;13.540;2023-02-15T13:35:25;24.40;;;22.42;;
14738;SDS011;7461;52.440;13.540;2023-02-15T13:41:04;24.98;;;22.75;;
14738;SDS011;7461;52.440;13.540;2023-02-15T13:43:38;27.25;;;24.75;;
14738;SDS011;7461;52.440;13.540;2023-02-15T13:46:15;27.63;;;25.10;;
14738;SDS011;7461;52.440;13.540;2023-02-15T13:48:52;25.30;;;23.13;;
14738;SDS011;7461;52.440;13.540;2023-02-15T13:51:32;23.73;;;21.75;;
14738;SDS011;7461;52.440;13.540;2023-02-15T13:56:58;24.25;;;22.33;;
14738;SDS011;7461;52.440;13.540;2023-02-15T13:59:40;24.13;;;22.00;;
14738;SDS011;7461;52.440;13.540;2023-02-15T14:05:33;23.42;;;21.42;;
14738;SDS011;7461;52.440;13.540;2023-02-15T14:08:16;23.95;;;22.02;;
14738;SDS011;7461;52.440;13.540;2023-02-15T14:10:56;23.45;;;21.45;;
14738;SDS011;7461;52.440;13.540;2023-02-15T14:16:39;23.08;;;21.00;;
14738;SDS011;7461;52.440;13.540;2023-02-15T14:19:16;23.85;;;21.75;;
14738;SDS011;7461;52.440;13.540;2023-02-15T14:21:52;23.83;;;21.92;;
14738;SDS011;7461;52.440;13.540;2023-02-15T14:24:29;22.63;;;20.67;;
14738;SDS011;7461;52.440;13.540;2023-02-15T14:27:09;24.15;;;21.90;;
14738;SDS011;7461;52.440;13.540;2023-02-15T14:29:46;24.58;;;22.25;;
14738;SDS011;7461;52.440;13.540;2023-02-15T14:32:18;24.40;;;22.30;;
14738;SDS011;7461;52.440;13.540;2023-02-15T14:34:52;22.67;;;20.80;;
14738;SDS011;7461;52.440;13.540;2023-02-15T14:37:23;24.38;;;22.38;;
14738;SDS011;7461;52.440;13.540;2023-02-15T14:39:59;22.13;;;20.33;;
14738;SDS011;7461;52.440;13.540;2023-02-15T14:42:48;22.92;;;21.00;;
14738;SDS011;7461;52.440;13.540;2023-02-15T14:45:21;23.63;;;21.63;;
14738;SDS011;7461;52.440;13.540;2023-02-15T14:47:55;23.83;;;21.80;;
14738;SDS011;7461;52.440;13.540;2023-02-15T14:50:39;23.70;;;21.60;;
14738;SDS011;7461;52.440;13.540;2023-02-15T14:53:17;22.42;;;20.23;;
14738;SDS011;7461;52.440;13.540;2023-02-15T14:59:07;22.48;;;20.50;;
14738;SDS011;7461;52.440;13.540;2023-02-15T15:01:51;24.95;;;22.55;;
14738;SDS011;7461;52.440;13.540;2023-02-15T15:04:23;23.48;;;21.58;;
14738;SDS011;7461;52.440;13.540;2023-02-15T15:07:03;23.42;;;21.33;;
14738;SDS011;7461;52.440;13.540;2023-02-15T15:09:36;24.23;;;21.90;;
14738;SDS011;7461;52.440;13.540;2023-02-15T15:15:05;22.50;;;20.58;;
14738;SDS011;7461;52.440;13.540;2023-02-15T15:26:25;20.48;;;18.70;;